Time;durP1;ratioP1;P1;durP2;ratioP2;P2;SDS_P1;SDS_P2;PMS_P1;PMS_P2;Temp;Humidity;BMP_temperature;BMP_pressure;BME280_temperature;BME280_humidity;BME280_pressure;Samples;Min_cycle;Max_cycle;Signal;HPM_P1;HPM_P2
2021/01/25 00:01:41;;;;;;;14.10;7.20;;;;;;;-0.31;84.30;97568.44;493298;1129;114199;-63
2021/01/25 00:11:45;;;;;;;15.83;9.83;;;;;;;-0.30;84.44;97575.26;492901;1128;114661;-64
2021/01/25 00:21:49;;;;;;;12.30;7.83;;;;;;;-0.28;84.31;97578.59;492809;1129;114404;-68
2021/01/25 00:31:54;;;;;;;15.57;8.83;;;;;;;-0.27;83.88;97587.17;493046;1128;114266;-68
2021/01/25 00:41:59;;;;;;;16.20;9.80;;;;;;;-0.23;83.77;97584.36;493168;1129;114566;-65
2021/01/25 00:52:03;;;;;;;17.13;9.67;;;;;;;-0.26;84.29;97593.99;492865;1128;114156;-62
2021/01/25 01:02:07;;;;;;;13.23;10.53;;;;;;;-0.26;84.40;97617.20;493144;1128;114213;-66
2021/01/25 01:12:12;;;;;;;11.73;8.33;;;;;;;-0.32;83.37;97626.09;493496;1128;114314;-67
2021/01/25 01:22:16;;;;;;;12.40;7.63;;;;;;;-0.39;83.58;97622.15;492361;1129;114123;-66
2021/01/25 01:32:20;;;;;;;10.60;7.93;;;;;;;-0.54;83.44;97606.55;492588;1128;114610;-63
2021/01/25 01:42:24;;;;;;;10.70;7.50;;;;;;;-0.64;83.28;97618.23;492806;1128;114200;-66
2021/01/25 01:52:28;;;;;;;12.30;8.27;;;;;;;-0.65;83.30;97616.57;492405;1128;114788;-67
2021/01/25 02:02:32;;;;;;;11.60;7.97;;;;;;;-0.65;83.54;97619.97;492005;1129;114274;-66
2021/01/25 02:12:37;;;;;;;11.27;7.80;;;;;;;-0.62;83.20;97627.57;495221;1129;114920;-68
2021/01/25 02:22:59;;;;;;;15.00;9.50;;;;;;;-0.54;84.04;97634.06;493739;1129;114289;-69
2021/01/25 02:33:04;;;;;;;12.80;9.07;;;;;;;-0.52;84.12;97620.20;493018;1129;114135;-68
2021/01/25 02:43:11;;;;;;;11.00;7.87;;;;;;;-0.55;83.63;97622.09;493018;1129;115090;-69
2021/01/25 02:53:15;;;;;;;10.20;7.67;;;;;;;-0.54;83.75;97629.76;493359;1129;115078;-68
2021/01/25 03:03:20;;;;;;;10.13;8.20;;;;;;;-0.50;83.63;97638.17;493432;1128;114529;-67
2021/01/25 03:13:28;;;;;;;11.83;9.17;;;;;;;-0.54;83.34;97636.64;493009;1128;115538;-67
2021/01/25 03:23:32;;;;;;;12.83;9.30;;;;;;;-0.54;83.03;97647.80;492609;1128;115462;-69
2021/01/25 03:33:37;;;;;;;14.83;11.20;;;;;;;-0.55;83.80;97655.61;493066;1129;114881;-69
2021/01/25 03:43:41;;;;;;;24.20;15.30;;;;;;;-0.57;83.80;97661.67;493527;1128;114715;-68
2021/01/25 03:53:44;;;;;;;23.60;15.17;;;;;;;-0.60;83.69;97666.14;493150;1130;115135;-68
2021/01/25 04:03:48;;;;;;;13.43;9.57;;;;;;;-0.55;83.91;97677.08;493592;1128;116393;-68
2021/01/25 04:13:52;;;;;;;12.75;10.15;;;;;;;-0.53;83.52;97682.14;492783;1128;114146;-69
2021/01/25 04:23:56;;;;;;;12.95;9.10;;;;;;;-0.53;83.08;97680.41;493341;1128;114610;-68
2021/01/25 04:34:02;;;;;;;13.40;8.25;;;;;;;-0.57;83.03;97695.19;493000;1128;114248;-69
2021/01/25 04:44:06;;;;;;;15.50;9.35;;;;;;;-0.61;83.96;97685.95;493721;1129;114143;-69
2021/01/25 04:54:13;;;;;;;16.07;9.73;;;;;;;-0.65;83.93;97689.56;493397;1128;114190;-68
2021/01/25 05:04:16;;;;;;;;;;;;;;;-0.63;84.03;97692.93;493746;1129;114132;-68
2021/01/25 05:14:20;;;;;;;16.57;11.30;;;;;;;-0.50;85.15;97705.22;493089;1129;100077;-70
2021/01/25 05:24:24;;;;;;;16.57;11.77;;;;;;;-0.43;84.89;97702.25;493628;1128;114193;-69
2021/01/25 05:34:29;;;;;;;17.20;11.40;;;;;;;-0.40;84.74;97695.27;493514;1128;115372;-69
2021/01/25 05:44:33;;;;;;;13.63;8.83;;;;;;;-0.47;84.51;97689.59;493247;1129;114504;-69
2021/01/25 05:54:38;;;;;;;12.17;8.03;;;;;;;-0.50;85.22;97698.30;493028;1128;114456;-69
2021/01/25 06:04:42;;;;;;;12.73;8.67;;;;;;;-0.51;84.19;97699.21;492659;1128;114549;-68
2021/01/25 06:14:52;;;;;;;11.33;8.40;;;;;;;-0.56;84.74;97716.66;492877;1129;114108;-68
2021/01/25 06:24:56;;;;;;;10.13;6.67;;;;;;;-0.60;83.89;97710.81;492518;1129;114022;-69
2021/01/25 06:35:03;;;;;;;10.65;7.20;;;;;;;-0.52;83.88;97733.64;492626;1128;114564;-69
2021/01/25 06:45:11;;;;;;;9.33;6.50;;;;;;;-0.57;84.72;97730.47;493107;1129;114068;-69
2021/01/25 06:55:15;;;;;;;11.33;6.70;;;;;;;-0.63;84.67;97746.22;493207;1128;114336;-68
2021/01/25 07:05:25;;;;;;;9.53;6.80;;;;;;;-0.63;84.23;97752.22;493231;1129;114800;-69
2021/01/25 07:15:29;;;;;;;11.33;6.80;;;;;;;-0.59;83.30;97760.63;492907;1129;114454;-69
2021/01/25 07:25:33;;;;;;;15.63;9.90;;;;;;;-0.52;83.93;97764.58;492625;1129;114496;-67
2021/01/25 07:35:37;;;;;;;12.85;7.80;;;;;;;-0.46;84.23;97764.30;492138;1129;114556;-66
2021/01/25 07:45:43;;;;;;;11.80;7.65;;;;;;;-0.30;83.72;97766.94;493134;1129;114276;-69
2021/01/25 07:55:49;;;;;;;13.10;7.80;;;;;;;-0.29;83.80;97768.64;493176;1129;114504;-68
2021/01/25 08:05:55;;;;;;;14.73;8.13;;;;;;;-0.23;83.42;97772.66;493522;1128;114516;-69
2021/01/25 08:16:04;;;;;;;16.42;10.75;;;;;;;-0.27;84.52;97770.30;493291;1128;114635;-69
2021/01/25 08:26:09;;;;;;;17.90;10.00;;;;;;;-0.30;83.91;97786.76;492923;1128;114649;-68
2021/01/25 08:36:24;;;;;;;17.17;10.20;;;;;;;-0.24;84.67;97783.05;492995;1128;114700;-65
2021/01/25 08:46:32;;;;;;;20.70;13.80;;;;;;;0.00;83.90;97778.43;492562;1128;114700;-66
2021/01/25 08:56:40;;;;;;;21.80;12.97;;;;;;;0.17;83.90;97779.31;492681;1129;114480;-65
2021/01/25 09:06:50;;;;;;;16.43;8.80;;;;;;;0.23;83.33;97797.91;492835;1128;115059;-66
2021/01/25 09:16:54;;;;;;;16.90;10.90;;;;;;;0.21;83.01;97804.05;492794;1128;113862;-66
2021/01/25 09:27:00;;;;;;;15.35;10.30;;;;;;;0.23;83.54;97812.55;493154;1128;114508;-60
2021/01/25 09:37:07;;;;;;;15.07;9.50;;;;;;;-0.05;83.54;97824.25;493171;1129;114575;-62
2021/01/25 09:47:11;;;;;;;12.50;9.17;;;;;;;-0.03;82.90;97818.12;493267;1129;114252;-61
2021/01/25 09:57:15;;;;;;;16.10;9.50;;;;;;;-0.06;83.29;97810.53;493460;1129;114120;-61
2021/01/25 10:07:19;;;;;;;17.47;12.57;;;;;;;-0.18;83.84;97824.85;493515;1129;114490;-62
2021/01/25 10:17:23;;;;;;;20.10;13.63;;;;;;;-0.16;83.31;97830.77;493619;1128;114473;-59
2021/01/25 10:27:28;;;;;;;16.27;12.30;;;;;;;-0.20;83.71;97823.25;493418;1128;114549;-61
2021/01/25 10:37:33;;;;;;;16.90;11.00;;;;;;;-0.19;83.42;97819.76;493053;1128;114257;-60
2021/01/25 10:47:38;;;;;;;17.40;10.30;;;;;;;-0.23;82.92;97826.84;493571;1128;114622;-60
2021/01/25 10:57:44;;;;;;;16.55;11.00;;;;;;;-0.24;83.08;97826.90;493213;1128;114218;-61
2021/01/25 11:07:48;;;;;;;18.77;13.07;;;;;;;-0.26;83.52;97826.14;493256;1129;114270;-62
2021/01/25 11:17:54;;;;;;;21.80;14.10;;;;;;;-0.35;83.50;97822.23;493531;1128;114205;-62
2021/01/25 11:27:58;;;;;;;14.73;9.87;;;;;;;-0.38;83.30;97833.56;492860;1128;114532;-63
2021/01/25 11:38:02;;;;;;;12.75;9.35;;;;;;;-0.45;84.33;97847.64;493372;1128;114020;-62
2021/01/25 11:48:08;;;;;;;12.90;10.07;;;;;;;-0.43;83.45;97841.52;493158;1128;114140;-61
2021/01/25 11:58:12;;;;;;;10.27;7.63;;;;;;;-0.54;83.72;97840.33;493281;1128;114828;-62
2021/01/25 12:08:16;;;;;;;11.17;7.57;;;;;;;-0.53;84.08;97835.11;493620;1128;114121;-61
2021/01/25 12:18:26;;;;;;;13.23;9.13;;;;;;;-0.51;84.85;97840.21;493366;1128;114072;-59
2021/01/25 12:28:33;;;;;;;15.87;9.97;;;;;;;-0.51;84.26;97840.21;493471;1128;114031;-67
2021/01/25 12:38:37;;;;;;;13.47;8.73;;;;;;;-0.53;84.22;97848.01;493038;1128;114044;-65
2021/01/25 12:48:41;;;;;;;14.63;9.68;;;;;;;-0.46;84.19;97849.41;484385;1128;10001843;-60
2021/01/25 12:58:45;;;;;;;14.13;9.10;;;;;;;-0.40;84.71;97852.58;492271;1128;115178;-60
2021/01/25 13:08:49;;;;;;;13.60;10.80;;;;;;;-0.34;84.74;97867.78;492491;1128;114539;-61
2021/01/25 13:18:54;;;;;;;15.27;10.23;;;;;;;-0.37;84.01;97867.91;492554;1128;114208;-60
2021/01/25 13:29:04;;;;;;;14.10;9.67;;;;;;;-0.41;84.32;97885.26;493127;1129;114488;-61
2021/01/25 13:39:08;;;;;;;12.50;9.40;;;;;;;-0.34;84.92;97896.16;492670;1128;113970;-60
2021/01/25 13:49:12;;;;;;;19.60;10.63;;;;;;;-0.36;85.01;97906.53;492800;1128;114047;-60
2021/01/25 13:59:16;;;;;;;16.20;10.47;;;;;;;-0.35;85.06;97909.93;492713;1129;114221;-60
2021/01/25 14:09:21;;;;;;;15.50;10.57;;;;;;;-0.40;85.39;97925.64;493553;1128;114168;-59
2021/01/25 14:19:25;;;;;;;13.57;9.67;;;;;;;-0.32;84.27;97938.18;492869;1130;114227;-60
2021/01/25 14:29:29;;;;;;;14.87;10.03;;;;;;;-0.26;84.27;97949.96;493169;1129;113971;-59
2021/01/25 14:39:34;;;;;;;12.57;8.93;;;;;;;-0.22;84.30;97956.64;493346;1128;114146;-60
2021/01/25 14:49:38;;;;;;;13.30;9.67;;;;;;;-0.23;84.14;97976.45;493216;1128;114035;-61
2021/01/25 14:59:43;;;;;;;15.10;9.85;;;;;;;-0.29;83.92;97993.05;493573;1128;114058;-61
2021/01/25 15:09:47;;;;;;;12.30;8.07;;;;;;;-0.30;84.74;98008.59;493211;1129;114044;-63
2021/01/25 15:19:51;;;;;;;11.60;8.27;;;;;;;-0.34;84.26;98022.54;493490;1128;114463;-63
2021/01/25 15:29:56;;;;;;;13.77;8.87;;;;;;;-0.37;83.65;98038.12;493621;1128;114838;-60
2021/01/25 15:40:01;;;;;;;14.17;10.37;;;;;;;-0.36;83.66;98050.97;493591;1128;114484;-62
2021/01/25 15:50:07;;;;;;;14.05;9.60;;;;;;;-0.34;83.90;98062.05;493066;1128;114207;-61
2021/01/25 16:00:16;;;;;;;14.17;9.90;;;;;;;-0.34;84.20;98077.53;493404;1128;114641;-64
2021/01/25 16:10:21;;;;;;;15.27;9.77;;;;;;;-0.31;84.21;98082.55;494019;1128;114542;-59
2021/01/25 16:20:25;;;;;;;15.83;10.97;;;;;;;-0.35;84.33;98075.85;493616;1128;114463;-59
2021/01/25 16:30:30;;;;;;;14.80;9.80;;;;;;;-0.38;83.66;98082.88;493381;1128;114259;-59
2021/01/25 16:40:34;;;;;;;14.77;9.87;;;;;;;-0.43;83.25;98103.71;493331;1129;114532;-60
2021/01/25 16:50:39;;;;;;;13.83;9.90;;;;;;;-0.41;84.75;98108.81;492876;1129;114496;-59
2021/01/25 17:00:47;;;;;;;15.20;8.75;;;;;;;-0.42;84.24;98120.86;492709;1128;114128;-64
2021/01/25 17:10:54;;;;;;;16.15;10.90;;;;;;;-0.40;84.37;98133.70;493098;1128;114879;-60
2021/01/25 17:20:58;;;;;;;17.47;11.57;;;;;;;-0.47;83.89;98133.95;493451;1128;115469;-60
2021/01/25 17:31:03;;;;;;;23.13;12.87;;;;;;;-0.44;83.97;98140.72;492893;1128;114586;-62
2021/01/25 17:41:08;;;;;;;18.97;12.57;;;;;;;-0.42;84.26;98136.33;492967;1128;114842;-62
2021/01/25 17:51:13;;;;;;;20.97;13.13;;;;;;;-0.41;84.83;98134.61;484619;1128;10002134;-57
2021/01/25 18:01:17;;;;;;;17.42;11.18;;;;;;;-0.39;84.26;98148.27;492706;1129;114988;-57
2021/01/25 18:11:21;;;;;;;15.70;10.03;;;;;;;-0.39;84.19;98138.80;493088;1128;114844;-58
2021/01/25 18:21:26;;;;;;;16.20;11.43;;;;;;;-0.43;83.68;98147.55;492453;1128;114693;-58
2021/01/25 18:31:30;;;;;;;14.80;10.70;;;;;;;-0.43;83.62;98139.82;492707;1128;114679;-64
2021/01/25 18:41:34;;;;;;;17.47;11.27;;;;;;;-0.45;83.56;98147.64;492677;1128;114681;-63
2021/01/25 18:51:38;;;;;;;18.17;10.97;;;;;;;-0.40;84.46;98156.91;492537;1128;114770;-62
2021/01/25 19:01:42;;;;;;;19.97;11.77;;;;;;;-0.41;84.12;98170.72;492091;1128;114722;-60
2021/01/25 19:11:47;;;;;;;16.73;11.17;;;;;;;-0.47;84.53;98180.36;492640;1129;114713;-63
2021/01/25 19:21:53;;;;;;;21.80;11.85;;;;;;;-0.50;83.57;98175.34;492267;1128;114774;-64
2021/01/25 19:31:57;;;;;;;17.60;10.45;;;;;;;-0.51;83.50;98181.41;492605;1128;114295;-66
2021/01/25 19:42:03;;;;;;;16.67;9.53;;;;;;;-0.58;83.94;98190.28;492602;1128;114400;-69
2021/01/25 19:52:07;;;;;;;13.93;10.40;;;;;;;-0.60;84.07;98199.83;492620;1128;114716;-64
2021/01/25 20:02:11;;;;;;;16.97;10.60;;;;;;;-0.64;84.15;98212.00;492869;1128;114653;-64
2021/01/25 20:12:18;;;;;;;17.57;10.67;;;;;;;-0.62;84.28;98227.42;492739;1128;114666;-65
2021/01/25 20:22:22;;;;;;;14.20;9.65;;;;;;;-0.62;83.50;98225.69;492955;1128;114275;-65
2021/01/25 20:32:26;;;;;;;15.90;10.53;;;;;;;-0.59;83.76;98233.30;492960;1128;114481;-66
2021/01/25 20:42:30;;;;;;;15.80;11.27;;;;;;;-0.60;84.56;98247.09;492692;1128;114669;-70
2021/01/25 20:52:35;;;;;;;18.20;12.70;;;;;;;-0.66;84.09;98249.08;492418;1127;115339;-64
2021/01/25 21:02:39;;;;;;;20.67;11.73;;;;;;;-0.73;84.29;98258.80;493072;1128;114168;-65
2021/01/25 21:12:43;;;;;;;16.17;11.10;;;;;;;-0.77;83.68;98268.38;492987;1128;114172;-68
2021/01/25 21:22:48;;;;;;;19.00;13.33;;;;;;;-0.81;83.79;98276.29;492905;1128;114651;-64
2021/01/25 21:32:52;;;;;;;18.93;12.80;;;;;;;-0.82;83.43;98287.50;493027;1129;114259;-66
2021/01/25 21:42:58;;;;;;;16.97;10.33;;;;;;;-0.82;83.79;98290.08;493158;1128;114273;-62
2021/01/25 21:53:02;;;;;;;18.40;12.85;;;;;;;-0.82;83.03;98288.33;492884;1128;114524;-60
2021/01/25 22:03:07;;;;;;;21.33;12.27;;;;;;;-0.88;82.69;98296.31;493245;1128;114257;-60
2021/01/25 22:13:11;;;;;;;18.67;11.20;;;;;;;-0.90;82.25;98298.93;492962;1128;114657;-61
2021/01/25 22:23:15;;;;;;;16.70;10.67;;;;;;;-0.91;82.46;98309.32;493116;1128;114650;-60
2021/01/25 22:33:19;;;;;;;24.17;11.20;;;;;;;-0.92;82.67;98313.62;493197;1129;114455;-62
2021/01/25 22:43:24;;;;;;;16.97;9.90;;;;;;;-0.91;82.66;98306.73;493198;1128;114222;-62
2021/01/25 22:53:28;;;;;;;15.97;8.73;;;;;;;-0.94;81.95;98310.27;492824;1128;114112;-61
2021/01/25 23:03:33;;;;;;;13.83;8.30;;;;;;;-0.93;81.55;98316.24;493079;1128;114024;-60
2021/01/25 23:13:37;;;;;;;14.97;8.90;;;;;;;-0.92;80.80;98311.05;492795;1128;114108;-60
2021/01/25 23:23:43;;;;;;;13.33;7.60;;;;;;;-0.94;80.59;98322.30;492809;1128;114323;-60
2021/01/25 23:33:48;;;;;;;14.20;8.27;;;;;;;-0.96;80.73;98324.09;492595;1128;114380;-60
2021/01/25 23:43:52;;;;;;;8.15;6.05;;;;;;;-1.01;80.22;98325.13;493260;1128;114023;-61
2021/01/25 23:53:56;;;;;;;10.60;7.60;;;;;;;-1.00;79.85;98339.68;492695;1128;113862;-61
